createdAt,value
2017-08-13T00:01:25.773Z,4.03
2017-08-13T00:03:55.014Z,4.13
2017-08-13T00:06:24.256Z,3.97
2017-08-13T00:08:53.592Z,4.30
2017-08-13T00:11:22.837Z,4.00
2017-08-13T00:13:52.079Z,4.10
2017-08-13T00:16:21.331Z,4.00
2017-08-13T00:18:50.580Z,4.50
2017-08-13T00:21:19.820Z,4.20
2017-08-13T00:23:49.052Z,4.20
2017-08-13T00:26:18.342Z,4.60
2017-08-13T00:28:47.574Z,4.93
2017-08-13T00:31:16.849Z,4.63
2017-08-13T00:33:46.362Z,4.30
2017-08-13T00:36:15.592Z,3.80
2017-08-13T00:38:44.845Z,5.27
2017-08-13T00:41:14.096Z,4.60
2017-08-13T00:43:43.342Z,4.70
2017-08-13T00:46:12.596Z,4.23
2017-08-13T00:48:41.860Z,4.47
2017-08-13T00:51:11.151Z,5.10
2017-08-13T00:53:40.372Z,4.03
2017-08-13T00:56:09.624Z,4.60
2017-08-13T00:58:38.868Z,3.83
2017-08-13T01:01:07.787Z,4.10
2017-08-13T01:03:37.031Z,3.50
2017-08-13T01:06:06.275Z,3.33
2017-08-13T01:08:35.517Z,3.30
2017-08-13T01:11:04.769Z,3.60
2017-08-13T01:13:34.022Z,3.80
2017-08-13T01:16:03.273Z,3.30
2017-08-13T01:18:32.549Z,3.20
2017-08-13T01:21:01.791Z,3.43
2017-08-13T01:23:31.040Z,3.70
2017-08-13T01:26:00.285Z,3.70
2017-08-13T01:28:29.533Z,3.90
2017-08-13T01:30:58.785Z,3.83
2017-08-13T01:33:28.050Z,3.90
2017-08-13T01:35:57.390Z,4.20
2017-08-13T01:38:26.626Z,3.70
2017-08-13T01:40:55.869Z,3.93
2017-08-13T01:43:25.409Z,3.95
2017-08-13T01:45:54.649Z,4.03
2017-08-13T01:48:24.190Z,4.00
2017-08-13T01:50:53.415Z,3.60
2017-08-13T01:53:22.681Z,4.13
2017-08-13T01:55:52.253Z,4.18
2017-08-13T01:58:21.497Z,4.03
2017-08-13T02:00:50.756Z,3.87
2017-08-13T02:03:20.018Z,4.27
2017-08-13T02:05:49.274Z,4.20
2017-08-13T02:08:18.509Z,3.70
2017-08-13T02:10:47.766Z,4.30
2017-08-13T02:13:17.016Z,3.70
2017-08-13T02:15:46.281Z,3.67
2017-08-13T02:18:15.504Z,3.50
2017-08-13T02:20:44.773Z,4.80
2017-08-13T02:23:14.297Z,4.72
2017-08-13T02:25:43.640Z,4.10
2017-08-13T02:28:12.860Z,4.40
2017-08-13T02:30:42.112Z,4.70
2017-08-13T02:33:11.349Z,4.80
2017-08-13T02:35:40.614Z,4.63
2017-08-13T02:38:09.832Z,4.90
2017-08-13T02:40:39.080Z,4.10
2017-08-13T02:43:08.310Z,4.20
2017-08-13T02:45:37.545Z,4.20
2017-08-13T02:48:06.784Z,4.67
2017-08-13T02:50:36.027Z,3.90
2017-08-13T02:53:05.564Z,4.62
2017-08-13T02:55:34.805Z,4.27
2017-08-13T02:58:04.032Z,4.83
2017-08-13T03:00:33.324Z,3.93
2017-08-13T03:03:02.557Z,4.60
2017-08-13T03:05:31.805Z,5.50
2017-08-13T03:08:01.041Z,4.20
2017-08-13T03:10:30.288Z,4.40
2017-08-13T03:12:59.523Z,5.10
2017-08-13T03:15:28.787Z,5.10
2017-08-13T03:17:58.033Z,5.60
2017-08-13T03:20:27.339Z,4.80
2017-08-13T03:22:56.563Z,5.40
2017-08-13T03:25:25.813Z,4.73
2017-08-13T03:27:55.065Z,5.53
2017-08-13T03:30:24.341Z,5.20
2017-08-13T03:32:53.597Z,5.80
2017-08-13T03:35:22.903Z,5.87
2017-08-13T03:37:52.166Z,6.03
2017-08-13T03:40:21.447Z,5.47
2017-08-13T03:42:50.682Z,5.57
2017-08-13T03:45:20.243Z,6.22
2017-08-13T03:47:49.773Z,6.12
2017-08-13T03:50:19.063Z,6.53
2017-08-13T03:52:48.292Z,6.10
2017-08-13T03:55:17.636Z,6.20
2017-08-13T03:57:47.953Z,7.32
2017-08-13T04:00:17.520Z,6.30
2017-08-13T04:02:47.028Z,7.05
2017-08-13T04:05:16.596Z,7.65
2017-08-13T04:07:45.840Z,7.50
2017-08-13T04:10:15.146Z,7.70
2017-08-13T04:12:44.324Z,7.78
2017-08-13T04:15:13.619Z,7.43
2017-08-13T04:17:43.185Z,6.50
2017-08-13T04:20:12.462Z,7.53
2017-08-13T04:22:41.985Z,7.68
2017-08-13T04:25:11.277Z,7.37
2017-08-13T04:27:40.799Z,7.10
2017-08-13T04:30:10.379Z,7.03
2017-08-13T04:32:39.888Z,6.90
2017-08-13T04:35:09.202Z,7.20
2017-08-13T04:37:38.432Z,6.20
2017-08-13T04:40:07.995Z,5.62
2017-08-13T04:42:37.231Z,6.00
2017-08-13T04:45:06.548Z,6.63
2017-08-13T04:47:35.767Z,7.20
2017-08-13T04:50:05.118Z,6.20
2017-08-13T04:52:34.367Z,6.50
2017-08-13T04:55:03.639Z,6.17
2017-08-13T04:57:32.874Z,5.57
2017-08-13T05:00:02.218Z,5.70
2017-08-13T05:02:31.439Z,6.70
2017-08-13T05:05:00.696Z,6.00
2017-08-13T05:07:29.956Z,5.50
2017-08-13T05:09:59.211Z,4.90
2017-08-13T05:12:28.452Z,5.33
2017-08-13T05:14:57.705Z,4.80
2017-08-13T05:17:26.957Z,4.67
2017-08-13T05:19:56.209Z,5.00
2017-08-13T05:22:25.440Z,5.50
2017-08-13T05:24:54.689Z,5.37
2017-08-13T05:27:23.928Z,5.17
2017-08-13T05:29:53.177Z,5.13
2017-08-13T05:32:22.444Z,5.40
2017-08-13T05:34:51.698Z,5.77
2017-08-13T05:37:21.037Z,5.40
2017-08-13T05:39:50.267Z,5.10
2017-08-13T05:42:19.512Z,5.20
2017-08-13T05:44:48.760Z,4.70
2017-08-13T05:47:17.989Z,4.77
2017-08-13T05:49:47.260Z,5.17
2017-08-13T05:52:16.490Z,5.03
2017-08-13T05:54:45.721Z,5.00
2017-08-13T05:57:14.960Z,4.50
2017-08-13T05:59:44.236Z,4.30
2017-08-13T06:02:13.476Z,3.93
2017-08-13T06:04:43.393Z,4.67
2017-08-13T06:07:12.737Z,4.37
2017-08-13T06:09:42.612Z,4.70
2017-08-13T06:12:11.888Z,4.93
2017-08-13T06:14:41.138Z,5.83
2017-08-13T06:17:11.044Z,5.83
2017-08-13T06:19:40.297Z,5.00
2017-08-13T06:22:09.569Z,5.33
2017-08-13T06:24:38.803Z,4.60
2017-08-13T06:27:08.069Z,5.60
2017-08-13T06:29:37.349Z,4.53
2017-08-13T06:32:06.605Z,5.10
2017-08-13T06:34:35.840Z,5.30
2017-08-13T06:37:05.088Z,5.00
2017-08-13T06:39:34.329Z,4.80
2017-08-13T06:42:03.604Z,5.97
2017-08-13T06:44:32.851Z,5.30
2017-08-13T06:47:02.085Z,4.60
2017-08-13T06:49:31.328Z,4.53
2017-08-13T06:52:00.605Z,5.03
2017-08-13T06:54:29.852Z,5.37
2017-08-13T06:56:59.085Z,5.27
2017-08-13T06:59:28.358Z,4.70
2017-08-13T07:01:57.584Z,4.63
2017-08-13T07:04:26.824Z,4.63
2017-08-13T07:06:56.068Z,4.80
2017-08-13T07:09:25.345Z,5.20
2017-08-13T07:11:54.587Z,5.87
2017-08-13T07:14:25.442Z,6.50
2017-08-13T07:16:54.652Z,5.37
2017-08-13T07:19:23.894Z,5.53
2017-08-13T07:21:53.145Z,6.03
2017-08-13T07:24:22.394Z,5.97
2017-08-13T07:26:51.630Z,6.03
2017-08-13T07:29:20.869Z,6.53
2017-08-13T07:31:50.116Z,6.40
2017-08-13T07:34:19.365Z,6.13
2017-08-13T07:36:48.614Z,7.07
2017-08-13T07:39:17.853Z,6.47
2017-08-13T07:41:47.103Z,6.80
2017-08-13T07:44:16.360Z,7.40
2017-08-13T07:46:45.598Z,6.80
2017-08-13T07:49:14.844Z,7.07
2017-08-13T07:51:44.101Z,8.07
2017-08-13T07:54:13.354Z,7.13
2017-08-13T07:56:42.591Z,7.40
2017-08-13T07:59:11.844Z,8.10
2017-08-13T08:01:41.109Z,7.77
2017-08-13T08:04:10.393Z,6.63
2017-08-13T08:06:39.622Z,6.70
2017-08-13T08:09:08.875Z,7.23
2017-08-13T08:11:38.144Z,7.10
2017-08-13T08:14:07.409Z,6.60
2017-08-13T08:16:36.700Z,7.90
2017-08-13T08:19:05.991Z,7.50
2017-08-13T08:21:35.284Z,8.00
2017-08-13T08:24:04.546Z,7.47
2017-08-13T08:26:34.765Z,7.17
2017-08-13T08:29:04.051Z,7.57
2017-08-13T08:31:33.337Z,8.20
2017-08-13T08:34:02.590Z,7.50
2017-08-13T08:36:31.836Z,7.97
2017-08-13T08:39:01.081Z,8.10
2017-08-13T08:41:30.311Z,7.53
2017-08-13T08:43:59.556Z,7.07
2017-08-13T08:46:28.803Z,7.10
2017-08-13T08:48:58.089Z,6.50
2017-08-13T08:51:27.851Z,6.03
2017-08-13T08:53:57.108Z,6.17
2017-08-13T08:56:26.362Z,5.60
2017-08-13T08:58:55.605Z,5.40
2017-08-13T09:01:24.844Z,5.03
2017-08-13T09:03:54.103Z,5.53
2017-08-13T09:06:23.345Z,5.60
2017-08-13T09:08:52.608Z,5.70
2017-08-13T09:11:21.839Z,5.27
2017-08-13T09:13:51.086Z,5.40
2017-08-13T09:16:20.341Z,5.10
2017-08-13T09:18:49.588Z,4.73
2017-08-13T09:21:18.844Z,4.37
2017-08-13T09:23:48.356Z,5.00
2017-08-13T09:26:17.605Z,4.80
2017-08-13T09:28:46.502Z,5.03
2017-08-13T09:31:15.740Z,4.73
2017-08-13T09:33:44.983Z,4.37
2017-08-13T09:36:14.237Z,4.30
2017-08-13T09:38:43.493Z,4.20
2017-08-13T09:41:12.729Z,4.50
2017-08-13T09:43:41.979Z,4.27
2017-08-13T09:46:11.219Z,4.00
2017-08-13T09:48:40.466Z,4.63
2017-08-13T09:51:09.725Z,3.83
2017-08-13T09:53:38.964Z,4.80
2017-08-13T09:56:08.204Z,4.00
2017-08-13T09:58:37.451Z,3.10
2017-08-13T10:01:06.705Z,3.80
2017-08-13T10:03:35.954Z,4.23
2017-08-13T10:06:05.206Z,3.33
2017-08-13T10:08:34.472Z,3.50
2017-08-13T10:11:03.698Z,3.10
2017-08-13T10:13:33.002Z,3.20
2017-08-13T10:16:02.229Z,3.30
2017-08-13T10:18:31.505Z,3.20
2017-08-13T10:21:00.737Z,3.10
2017-08-13T10:23:29.978Z,3.40
2017-08-13T10:25:59.220Z,3.30
2017-08-13T10:28:28.497Z,3.47
2017-08-13T10:30:57.717Z,2.87
2017-08-13T10:33:26.972Z,3.57
2017-08-13T10:35:56.227Z,3.20
2017-08-13T10:38:25.486Z,3.00
2017-08-13T10:40:54.726Z,3.20
2017-08-13T10:43:23.976Z,3.03
2017-08-13T10:45:53.244Z,3.60
2017-08-13T10:48:22.498Z,2.83
2017-08-13T10:50:51.744Z,3.63
2017-08-13T10:53:20.985Z,3.47
2017-08-13T10:55:50.248Z,3.43
2017-08-13T10:58:19.522Z,3.17
2017-08-13T11:00:48.773Z,3.03
2017-08-13T11:03:18.717Z,3.20
2017-08-13T11:05:47.968Z,2.80
2017-08-13T11:08:17.214Z,2.90
2017-08-13T11:10:46.477Z,3.20
2017-08-13T11:13:15.747Z,3.17
2017-08-13T11:15:45.682Z,2.57
2017-08-13T11:18:14.913Z,2.07
2017-08-13T11:20:44.225Z,2.90
2017-08-13T11:23:13.468Z,2.40
2017-08-13T11:25:42.733Z,2.70
2017-08-13T11:28:11.961Z,2.50
2017-08-13T11:30:41.342Z,2.60
2017-08-13T11:33:10.601Z,2.50
2017-08-13T11:35:39.842Z,2.27
2017-08-13T11:38:09.080Z,2.40
2017-08-13T11:40:38.325Z,2.40
2017-08-13T11:43:07.582Z,2.30
2017-08-13T11:45:36.848Z,2.63
2017-08-13T11:48:06.139Z,2.43
2017-08-13T11:50:35.383Z,2.20
2017-08-13T11:53:04.636Z,2.70
2017-08-13T11:55:33.877Z,2.53
2017-08-13T11:58:03.142Z,2.10
2017-08-13T12:00:32.716Z,2.40
2017-08-13T12:03:01.948Z,1.90
2017-08-13T12:05:31.194Z,2.07
2017-08-13T12:08:00.434Z,2.03
2017-08-13T12:10:29.676Z,1.93
2017-08-13T12:12:58.924Z,2.00
2017-08-13T12:15:28.180Z,2.10
2017-08-13T12:17:57.431Z,1.80
2017-08-13T12:20:26.680Z,2.07
2017-08-13T12:22:55.921Z,1.80
2017-08-13T12:25:25.189Z,1.73
2017-08-13T12:27:54.484Z,1.90
2017-08-13T12:30:23.756Z,1.90
2017-08-13T12:32:53.035Z,1.70
2017-08-13T12:35:22.309Z,1.70
2017-08-13T12:37:51.534Z,2.40
2017-08-13T12:40:20.823Z,1.90
2017-08-13T12:42:50.066Z,2.03
2017-08-13T12:45:19.365Z,2.00
2017-08-13T12:47:48.608Z,2.07
2017-08-13T12:50:17.909Z,1.80
2017-08-13T12:52:47.136Z,1.50
2017-08-13T12:55:16.451Z,1.60
2017-08-13T12:57:45.676Z,1.47
2017-08-13T13:00:15.036Z,1.50
2017-08-13T13:02:44.296Z,1.63
2017-08-13T13:05:13.586Z,1.60
2017-08-13T13:07:42.812Z,1.50
2017-08-13T13:10:12.109Z,1.40
2017-08-13T13:12:41.336Z,1.50
2017-08-13T13:15:10.635Z,1.73
2017-08-13T13:17:39.865Z,2.57
2017-08-13T13:20:09.160Z,1.80
2017-08-13T13:22:38.409Z,1.70
2017-08-13T13:25:07.718Z,1.80
2017-08-13T13:27:36.945Z,1.40
2017-08-13T13:30:06.235Z,1.30
2017-08-13T13:32:35.498Z,1.30
2017-08-13T13:35:04.790Z,1.60
2017-08-13T13:37:34.063Z,1.63
2017-08-13T13:40:03.391Z,1.40
2017-08-13T13:42:32.636Z,1.20
2017-08-13T13:45:01.972Z,1.50
2017-08-13T13:47:31.215Z,1.30
2017-08-13T13:50:00.453Z,1.40
2017-08-13T13:52:29.713Z,1.67
2017-08-13T13:54:58.965Z,1.27
2017-08-13T13:57:28.226Z,1.70
2017-08-13T13:59:57.525Z,1.43
2017-08-13T14:02:26.748Z,1.50
2017-08-13T14:04:55.997Z,1.70
2017-08-13T14:07:25.245Z,1.40
2017-08-13T14:09:54.552Z,1.40
2017-08-13T14:12:23.829Z,1.10
2017-08-13T14:14:53.112Z,1.27
2017-08-13T14:17:22.413Z,1.40
2017-08-13T14:19:51.661Z,1.60
2017-08-13T14:22:20.936Z,1.43
2017-08-13T14:24:50.192Z,1.40
2017-08-13T14:27:19.421Z,1.63
2017-08-13T14:29:48.728Z,1.50
2017-08-13T14:32:18.165Z,1.50
2017-08-13T14:34:47.617Z,1.60
2017-08-13T14:37:17.057Z,1.63
2017-08-13T14:39:46.506Z,1.20
2017-08-13T14:42:15.965Z,1.20
2017-08-13T14:44:45.439Z,1.20
2017-08-13T14:47:14.889Z,1.00
2017-08-13T14:49:44.365Z,1.00
2017-08-13T14:52:13.786Z,0.97
2017-08-13T14:54:43.233Z,0.80
2017-08-13T14:57:12.777Z,1.00
2017-08-13T14:59:42.225Z,0.83
2017-08-13T15:02:11.715Z,1.00
2017-08-13T15:04:41.188Z,1.10
2017-08-13T15:07:10.692Z,0.87
2017-08-13T15:09:40.146Z,1.00
2017-08-13T15:12:09.577Z,2.03
2017-08-13T15:14:39.032Z,1.03
2017-08-13T15:17:08.596Z,1.20
2017-08-13T15:19:38.048Z,1.10
2017-08-13T15:22:07.516Z,1.30
2017-08-13T15:24:37.016Z,1.10
2017-08-13T15:27:06.500Z,1.10
2017-08-13T15:29:35.945Z,1.40
2017-08-13T15:32:05.407Z,1.30
2017-08-13T15:34:34.859Z,1.10
2017-08-13T15:37:04.294Z,1.30
2017-08-13T15:39:33.756Z,1.20
2017-08-13T15:42:03.201Z,1.60
2017-08-13T15:44:32.644Z,1.00
2017-08-13T15:47:02.108Z,1.10
2017-08-13T15:49:31.561Z,0.90
2017-08-13T15:52:01.011Z,1.10
2017-08-13T15:54:30.458Z,0.93
2017-08-13T15:56:59.905Z,1.10
2017-08-13T15:59:29.340Z,0.90
2017-08-13T16:01:58.834Z,0.90
2017-08-13T16:04:28.365Z,1.00
2017-08-13T16:06:57.832Z,1.10
2017-08-13T16:09:27.285Z,1.13
2017-08-13T16:11:56.730Z,1.00
2017-08-13T16:14:26.188Z,1.00
2017-08-13T16:16:55.628Z,1.00
2017-08-13T16:19:25.088Z,0.90
2017-08-13T16:21:54.545Z,1.00
2017-08-13T16:24:24.010Z,1.00
2017-08-13T16:26:53.471Z,1.00
2017-08-13T16:29:22.921Z,0.80
2017-08-13T16:31:52.365Z,0.80
2017-08-13T16:34:21.797Z,0.90
2017-08-13T16:36:51.257Z,1.07
2017-08-13T16:39:20.718Z,0.97
2017-08-13T16:41:50.283Z,0.90
2017-08-13T16:44:19.728Z,1.10
2017-08-13T16:46:49.194Z,0.93
2017-08-13T16:49:18.644Z,0.80
2017-08-13T16:51:48.144Z,1.00
2017-08-13T16:54:17.637Z,0.90
2017-08-13T16:56:47.088Z,0.90
2017-08-13T16:59:16.555Z,1.00
2017-08-13T17:01:46.009Z,0.87
2017-08-13T17:04:15.448Z,1.00
2017-08-13T17:06:44.904Z,0.90
2017-08-13T17:09:14.364Z,1.07
2017-08-13T17:11:43.815Z,0.97
2017-08-13T17:14:13.241Z,1.00
2017-08-13T17:16:42.684Z,1.17
2017-08-13T17:19:11.965Z,1.10
2017-08-13T17:21:41.429Z,1.03
2017-08-13T17:24:10.897Z,1.40
2017-08-13T17:26:40.392Z,1.20
2017-08-13T17:29:09.851Z,1.63
2017-08-13T17:31:39.299Z,1.30
2017-08-13T17:34:08.736Z,1.40
2017-08-13T17:36:38.245Z,1.57
2017-08-13T17:39:07.679Z,1.50
2017-08-13T17:41:37.125Z,1.23
2017-08-13T17:44:07.833Z,1.87
2017-08-13T17:46:37.346Z,1.90
2017-08-13T17:49:06.853Z,1.37
2017-08-13T17:51:36.439Z,1.50
2017-08-13T17:54:05.887Z,1.33
2017-08-13T17:56:35.322Z,1.60
2017-08-13T17:59:04.786Z,1.40
2017-08-13T18:01:34.225Z,1.40
2017-08-13T18:04:03.690Z,1.67
2017-08-13T18:06:33.140Z,1.30
2017-08-13T18:09:02.598Z,1.23
2017-08-13T18:11:31.869Z,1.80
2017-08-13T18:14:01.318Z,1.53
2017-08-13T18:16:30.754Z,2.73
2017-08-13T18:19:00.189Z,2.97
2017-08-13T18:21:29.672Z,2.30
2017-08-13T18:23:59.171Z,1.60
2017-08-13T18:26:28.615Z,1.70
2017-08-13T18:28:58.065Z,1.80
2017-08-13T18:31:27.500Z,1.70
2017-08-13T18:33:56.980Z,1.63
2017-08-13T18:36:26.436Z,2.07
2017-08-13T18:38:55.958Z,1.73
2017-08-13T18:41:25.481Z,2.37
2017-08-13T18:43:54.944Z,2.10
2017-08-13T18:46:25.089Z,1.50
2017-08-13T18:48:54.600Z,1.70
2017-08-13T18:51:24.786Z,1.70
2017-08-13T18:53:54.233Z,2.30
2017-08-13T18:56:23.691Z,1.50
2017-08-13T18:58:53.153Z,1.80
2017-08-13T19:01:22.602Z,2.00
2017-08-13T19:03:52.042Z,2.03
2017-08-13T19:06:21.510Z,3.07
2017-08-13T19:08:50.950Z,1.50
2017-08-13T19:11:20.427Z,1.70
2017-08-13T19:16:28.550Z,2.00
2017-08-13T19:18:58.050Z,1.50
2017-08-13T19:21:27.489Z,1.80
2017-08-13T19:23:56.930Z,1.67
2017-08-13T19:26:26.558Z,1.80
2017-08-13T19:28:56.088Z,1.90
2017-08-13T19:31:25.532Z,2.00
2017-08-13T19:33:54.975Z,2.60
2017-08-13T19:36:24.438Z,2.07
2017-08-13T19:38:53.904Z,2.20
2017-08-13T19:41:23.354Z,2.37
2017-08-13T19:43:52.802Z,1.60
2017-08-13T19:46:22.344Z,1.87
2017-08-13T19:48:51.789Z,2.53
2017-08-13T19:51:21.306Z,1.83
2017-08-13T19:53:50.783Z,2.23
2017-08-13T19:56:20.261Z,2.00
2017-08-13T19:58:49.701Z,2.30
2017-08-13T20:01:19.168Z,5.27
2017-08-13T20:03:48.730Z,2.47
2017-08-13T20:06:18.224Z,1.90
2017-08-13T20:08:47.761Z,1.70
2017-08-13T20:11:17.218Z,2.13
2017-08-13T20:13:46.679Z,2.37
2017-08-13T20:16:16.150Z,3.40
2017-08-13T20:18:45.606Z,3.00
2017-08-13T20:21:15.065Z,4.67
2017-08-13T20:23:44.540Z,2.80
2017-08-13T20:26:14.056Z,2.20
2017-08-13T20:28:43.500Z,1.97
2017-08-13T20:31:12.962Z,2.50
2017-08-13T20:33:42.407Z,2.20
2017-08-13T20:36:11.851Z,2.00
2017-08-13T20:38:41.288Z,2.20
2017-08-13T20:41:10.727Z,1.90
2017-08-13T20:43:40.177Z,2.40
2017-08-13T20:46:09.747Z,2.50
2017-08-13T20:48:39.205Z,2.57
2017-08-13T20:51:08.677Z,2.67
2017-08-13T20:53:38.133Z,4.73
2017-08-13T20:56:07.587Z,2.93
2017-08-13T20:58:37.033Z,2.10
2017-08-13T21:01:06.484Z,2.43
2017-08-13T21:03:35.940Z,3.47
2017-08-13T21:06:05.402Z,2.53
2017-08-13T21:08:35.556Z,2.50
2017-08-13T21:11:04.992Z,2.60
2017-08-13T21:13:34.448Z,2.97
2017-08-13T21:16:03.897Z,2.63
2017-08-13T21:18:33.376Z,2.57
2017-08-13T21:21:02.850Z,2.20
2017-08-13T21:23:32.298Z,2.53
2017-08-13T21:26:01.736Z,4.20
2017-08-13T21:28:31.326Z,2.97
2017-08-13T21:31:00.776Z,2.97
2017-08-13T21:33:30.245Z,2.37
2017-08-13T21:35:59.684Z,2.30
2017-08-13T21:38:29.124Z,3.20
2017-08-13T21:40:58.425Z,2.47
2017-08-13T21:43:27.861Z,3.37
2017-08-13T21:45:57.296Z,3.23
2017-08-13T21:48:26.753Z,3.20
2017-08-13T21:50:56.193Z,2.70
2017-08-13T21:53:25.641Z,3.53
2017-08-13T21:55:55.111Z,3.07
2017-08-13T21:58:24.844Z,3.05
2017-08-13T22:00:54.313Z,3.30
2017-08-13T22:03:29.389Z,3.03
2017-08-13T22:05:59.132Z,2.80
2017-08-13T22:08:28.867Z,3.10
2017-08-13T22:10:58.600Z,3.50
2017-08-13T22:13:28.075Z,3.37
2017-08-13T22:15:57.513Z,4.80
2017-08-13T22:18:26.953Z,4.23
2017-08-13T22:20:56.677Z,3.40
2017-08-13T22:23:26.144Z,3.60
2017-08-13T22:25:55.869Z,2.95
2017-08-13T22:28:25.617Z,3.60
2017-08-13T22:30:55.363Z,3.40
2017-08-13T22:33:25.101Z,3.15
2017-08-13T22:35:54.545Z,3.47
2017-08-13T22:38:24.015Z,4.40
2017-08-13T22:40:53.724Z,2.87
2017-08-13T22:43:23.478Z,3.05
2017-08-13T22:45:53.197Z,3.15
2017-08-13T22:48:22.926Z,3.53
2017-08-13T22:50:52.652Z,3.65
2017-08-13T22:53:22.094Z,2.40
2017-08-13T22:55:51.828Z,2.75
2017-08-13T22:58:21.584Z,2.95
2017-08-13T23:00:51.149Z,6.60
2017-08-13T23:03:20.692Z,4.20
2017-08-13T23:05:50.423Z,2.70
2017-08-13T23:08:20.172Z,2.78
2017-08-13T23:10:49.906Z,3.90
2017-08-13T23:13:19.629Z,4.10
2017-08-13T23:15:49.372Z,3.80
2017-08-13T23:18:19.109Z,3.03
2017-08-13T23:20:49.251Z,3.53
2017-08-13T23:23:18.976Z,2.90
2017-08-13T23:25:48.759Z,2.92
2017-08-13T23:28:18.510Z,2.85
2017-08-13T23:30:48.292Z,2.90
2017-08-13T23:33:18.010Z,3.35
2017-08-13T23:35:47.750Z,3.20
2017-08-13T23:38:17.491Z,4.00
2017-08-13T23:40:47.221Z,3.42
2017-08-13T23:43:17.001Z,2.92
2017-08-13T23:45:47.416Z,3.67
2017-08-13T23:48:17.147Z,3.80
2017-08-13T23:50:46.889Z,3.85
2017-08-13T23:53:16.620Z,3.95
2017-08-13T23:55:46.341Z,2.90
2017-08-13T23:58:16.091Z,3.62
